メインページ
METAR-TAF:

METAR-TAF

空港 :

イルクーツク, ロシア

イルクーツク国際空港

緯度: 52-16N, 経度: 104-19E, 海抜: 513m

現時点の気象観測

当レポートは37分前の12:30(UTC)に作成
北/北西の風 2kt
気温 -18°C
湿度 84%
気圧 1021 hPa
視程10km以上
小雪

METAR: UIII 241230Z 33001MPS 9999 -SN NSC M18/M20 Q1021 R30/490245 NOSIG RMK QFE721/0961

時間: 21:07 (13:07 UTC)

予報

当レポートは2時間7分前の11:00(UTC)に作成
予報は24日の 12時(UTC)から 25日の 12時(UTC)まで有効
西/北西の風 6kt
視程: 3100m
高度1100ftの千切れ雲あり, 積乱雲.
弱いにわか雪
24日の 12時(UTC)から 25日の 06時(UTC)まで一時的に
視程: 0900m
高度300ftの
激しいにわか雪

TAF: UIII 241100Z 2412/2512 30003MPS 3100 -SHSN BKN011CB TEMPO 2412/2506 0900 +SHSN VV003

4,000以上の空港の気象観測と天気予報(METAR報とTAF報)

利用可能な観測所は地図上に黄色い丸と赤い丸で示す。

丸の上にカーソルを重ねると観測所名を参照できる。

次にクリックすると気象観測と天気予報を参照できる。

マップの切り替え:黒色「×」印の緑ボタンをクリックして拡大、「-」印の緑ボタンをクリックして縮小、緑色の三角印をクリックして隣りの地図に切り替え


METAR-TAF: